Time;durP1;ratioP1;P1;durP2;ratioP2;P2;SDS_P1;SDS_P2;PMS_P1;PMS_P2;Temp;Humidity;BMP_temperature;BMP_pressure;BME280_temperature;BME280_humidity;BME280_pressure;Samples;Min_cycle;Max_cycle;Signal;HPM_P1;HPM_P2
2023/01/02 00:01:41;;;;;;;31.20;18.88;;;;;;;7.19;84.16;101374.97;5039916;28;20083;-66
2023/01/02 00:04:06;;;;;;;34.45;18.98;;;;;;;7.28;83.86;101371.72;5039996;28;20025;-65
2023/01/02 00:06:33;;;;;;;30.48;18.00;;;;;;;7.39;82.86;101369.28;5039559;28;20029;-67
2023/01/02 00:09:00;;;;;;;30.42;17.75;;;;;;;7.52;82.39;101375.41;5038859;28;20220;-67
2023/01/02 00:11:25;;;;;;;30.40;18.30;;;;;;;7.62;80.61;101376.47;5039236;28;20029;-67
2023/01/02 00:13:50;;;;;;;28.88;17.60;;;;;;;7.53;80.72;101373.63;5038475;28;20044;-66
2023/01/02 00:16:17;;;;;;;27.73;17.60;;;;;;;7.50;80.41;101381.72;5056069;28;20059;-65
2023/01/02 00:18:42;;;;;;;28.30;16.60;;;;;;;7.47;80.03;101384.56;5057663;28;20040;-67
2023/01/02 00:21:08;;;;;;;30.77;18.35;;;;;;;7.22;80.47;101374.78;5057911;28;20515;-66
2023/01/02 00:23:33;;;;;;;29.92;18.17;;;;;;;7.30;80.82;101398.88;5039749;28;20033;-66
2023/01/02 00:25:59;;;;;;;29.40;16.42;;;;;;;7.39;80.68;101387.72;5038306;28;20045;-67
2023/01/02 00:28:25;;;;;;;29.63;17.77;;;;;;;7.45;79.67;101389.09;5038751;28;20041;-66
2023/01/02 00:30:50;;;;;;;33.63;18.83;;;;;;;7.46;79.58;101393.44;5038716;28;20041;-66
2023/01/02 00:33:16;;;;;;;27.20;16.75;;;;;;;7.49;78.73;101394.06;5038502;28;20041;-68
2023/01/02 00:35:42;;;;;;;28.77;17.83;;;;;;;7.51;77.72;101402.72;5037300;28;20057;-66
2023/01/02 00:38:07;;;;;;;31.95;17.80;;;;;;;7.52;77.23;101400.94;5037371;28;20334;-67
2023/01/02 00:40:33;;;;;;;30.50;18.60;;;;;;;7.51;76.99;101401.88;5036934;28;20044;-66
2023/01/02 00:42:59;;;;;;;32.83;20.38;;;;;;;7.47;77.36;101393.31;5043934;28;20071;-66
2023/01/02 00:45:25;;;;;;;39.20;21.23;;;;;;;7.50;77.64;101397.53;5042479;28;20056;-66
2023/01/02 00:47:50;;;;;;;34.85;21.73;;;;;;;7.36;77.79;101398.47;5043557;28;20227;-67
2023/01/02 00:50:16;;;;;;;35.88;22.38;;;;;;;7.32;78.25;101397.81;5042132;28;20033;-66
2023/01/02 00:52:41;;;;;;;35.15;21.38;;;;;;;7.33;79.02;101396.03;5043014;28;20370;-66
2023/01/02 00:55:07;;;;;;;44.67;24.95;;;;;;;7.29;79.43;101397.19;5043283;28;20033;-66
2023/01/02 00:57:33;;;;;;;49.45;26.88;;;;;;;7.31;79.81;101395.28;5043929;28;20091;-66
2023/01/02 00:59:58;;;;;;;47.55;27.50;;;;;;;7.33;79.20;101394.22;5043512;28;20041;-66
2023/01/02 01:02:23;;;;;;;41.05;23.10;;;;;;;7.25;79.95;101391.22;5041877;28;20076;-67
2023/01/02 01:04:49;;;;;;;40.58;23.05;;;;;;;7.21;80.03;101389.75;5040520;28;20037;-66
2023/01/02 01:07:14;;;;;;;34.78;21.92;;;;;;;7.18;79.90;101389.94;5040866;28;20037;-65
2023/01/02 01:09:40;;;;;;;37.53;22.90;;;;;;;7.21;79.43;101388.91;5042471;28;20099;-67
2023/01/02 01:12:05;;;;;;;39.97;23.85;;;;;;;7.21;78.85;101388.91;5024847;28;20048;-66
2023/01/02 01:14:31;;;;;;;39.35;23.48;;;;;;;7.15;77.15;101386.66;5042666;28;20037;-66
2023/01/02 01:16:56;;;;;;;41.35;23.25;;;;;;;7.07;76.29;101388.94;5042587;28;20393;-66
2023/01/02 01:19:22;;;;;;;39.63;21.52;;;;;;;7.04;76.64;101384.72;5040118;28;20389;-67
2023/01/02 01:21:47;;;;;;;38.60;21.42;;;;;;;7.09;77.56;101387.91;5044187;28;20388;-66
2023/01/02 01:24:14;;;;;;;38.92;22.30;;;;;;;7.14;78.40;101374.44;5045798;28;20033;-66
2023/01/02 01:26:39;;;;;;;40.28;22.70;;;;;;;7.18;78.17;101374.13;5042619;28;20036;-67
2023/01/02 01:29:05;;;;;;;41.88;22.83;;;;;;;7.21;79.07;101368.66;5042685;28;20231;-66
2023/01/02 01:31:30;;;;;;;39.67;22.25;;;;;;;7.25;78.87;101361.41;5042370;28;20060;-66
2023/01/02 01:33:56;;;;;;;35.17;21.60;;;;;;;7.28;78.73;101364.72;5042485;28;20330;-67
2023/01/02 01:36:23;;;;;;;45.47;24.60;;;;;;;7.29;79.43;101358.50;5042054;28;20037;-66
2023/01/02 01:38:48;;;;;;;47.78;25.58;;;;;;;7.22;79.37;101353.69;5041838;28;20386;-66
2023/01/02 01:41:16;;;;;;;41.85;24.15;;;;;;;7.20;79.97;101351.16;5042167;28;20391;-66
2023/01/02 01:43:55;;;;;;;42.60;22.83;;;;;;;7.16;80.03;101359.38;5039675;28;20045;-67
2023/01/02 01:46:23;;;;;;;42.58;24.25;;;;;;;7.16;80.15;101346.19;5038640;28;20038;-66
2023/01/02 01:48:56;;;;;;;40.90;23.33;;;;;;;7.16;78.69;101349.69;5040326;28;20067;-67
2023/01/02 01:51:23;;;;;;;47.10;24.45;;;;;;;7.17;78.00;101340.00;5042051;28;20038;-66
2023/01/02 01:53:56;;;;;;;44.40;23.70;;;;;;;7.04;78.89;101347.84;5041349;28;20048;-65
2023/01/02 01:56:22;;;;;;;39.90;23.00;;;;;;;6.94;79.13;101341.50;5042833;28;20069;-65
2023/01/02 01:58:47;;;;;;;38.28;21.20;;;;;;;6.93;79.16;101345.06;5041873;28;20033;-66
2023/01/02 02:01:15;;;;;;;42.55;22.45;;;;;;;6.94;79.15;101338.88;5041307;28;20037;-66
2023/01/02 02:03:44;;;;;;;42.17;24.08;;;;;;;6.96;78.77;101340.44;5041919;28;20061;-67
2023/01/02 02:06:10;;;;;;;51.92;26.55;;;;;;;7.00;78.64;101343.72;5039655;28;20327;-65
2023/01/02 02:08:52;;;;;;;45.97;24.42;;;;;;;6.97;78.46;101343.94;5039076;28;20115;-66
2023/01/02 02:11:18;;;;;;;39.05;22.90;;;;;;;7.01;78.77;101337.50;5041479;28;20034;-66
2023/01/02 02:13:43;;;;;;;42.20;22.45;;;;;;;7.07;76.95;101345.00;5041229;28;20235;-66
2023/01/02 02:16:18;;;;;;;38.75;23.75;;;;;;;7.07;77.06;101349.44;5041486;28;20041;-67
2023/01/02 02:19:27;;;;;;;60.03;30.55;;;;;;;6.93;77.51;101345.91;5041106;28;20056;-67
2023/01/02 02:22:15;;;;;;;64.97;31.92;;;;;;;6.85;79.63;101344.72;5040639;28;20044;-67
2023/01/02 02:24:49;;;;;;;47.05;26.00;;;;;;;6.77;79.60;101347.84;5040495;28;20341;-67
2023/01/02 02:27:36;;;;;;;43.42;23.83;;;;;;;6.80;80.03;101350.28;5038878;28;20045;-67
2023/01/02 02:30:17;;;;;;;110.70;46.30;;;;;;;6.89;80.34;101346.22;5039654;28;20357;-65
2023/01/02 02:33:19;;;;;;;51.15;26.75;;;;;;;6.91;78.03;101345.16;5040857;28;20039;-66
2023/01/02 02:36:00;;;;;;;42.00;25.52;;;;;;;6.75;78.23;101336.56;5038499;28;20119;-66
2023/01/02 02:39:00;;;;;;;54.38;29.27;;;;;;;6.76;77.88;101335.63;5038596;28;20029;-66
2023/01/02 02:41:32;;;;;;;71.95;30.20;;;;;;;6.81;78.11;101324.81;5041121;28;20068;-66
2023/01/02 02:44:15;;;;;;;88.68;35.00;;;;;;;6.89;78.06;101326.00;5040058;28;20029;-65
2023/01/02 02:47:06;;;;;;;39.70;21.27;;;;;;;6.83;77.29;101317.66;5041373;28;20049;-67
2023/01/02 02:50:07;;;;;;;35.65;20.45;;;;;;;6.84;75.60;101320.19;5042589;28;20212;-67
2023/01/02 02:52:45;;;;;;;33.15;20.13;;;;;;;6.83;76.25;101312.38;5038267;28;20056;-66
2023/01/02 02:55:24;;;;;;;35.17;18.02;;;;;;;6.78;75.60;101310.06;5037325;28;20384;-67
2023/01/02 02:57:51;;;;;;;30.90;18.85;;;;;;;6.72;74.23;101311.28;5039733;28;21872;-67
2023/01/02 03:00:19;;;;;;;31.85;19.35;;;;;;;6.68;72.92;101309.81;5040320;28;20033;-65
2023/01/02 03:02:45;;;;;;;33.88;19.13;;;;;;;6.66;73.13;101306.44;5041134;28;20041;-66
2023/01/02 03:05:18;;;;;;;32.95;19.15;;;;;;;6.65;74.07;101298.63;5039590;28;20060;-65
2023/01/02 03:07:52;;;;;;;30.60;18.65;;;;;;;6.72;76.19;101303.41;5041731;28;20041;-66
2023/01/02 03:10:37;;;;;;;37.47;18.92;;;;;;;6.73;76.83;101299.81;5040414;28;20064;-66
2023/01/02 03:13:05;;;;;;;28.77;18.45;;;;;;;6.73;77.63;101305.09;5041069;28;20258;-67
2023/01/02 03:15:34;;;;;;;30.73;18.52;;;;;;;6.77;76.57;101305.72;5040773;28;20111;-66
2023/01/02 03:18:10;;;;;;;35.28;21.40;;;;;;;6.79;76.40;101305.63;5040196;28;20037;-66
2023/01/02 03:20:43;;;;;;;38.45;20.20;;;;;;;6.76;76.80;101306.69;5040153;28;20357;-66
2023/01/02 03:23:16;;;;;;;36.38;21.10;;;;;;;6.69;76.55;101310.66;5039746;28;20201;-66
2023/01/02 03:25:43;;;;;;;35.97;21.27;;;;;;;6.67;76.54;101313.38;5041219;28;20065;-66
2023/01/02 03:28:10;;;;;;;38.15;22.58;;;;;;;6.67;77.23;101309.91;5040441;28;20049;-65
2023/01/02 03:30:39;;;;;;;35.60;19.92;;;;;;;6.66;77.43;101309.06;5039537;28;20460;-66
2023/01/02 03:33:16;;;;;;;36.55;20.45;;;;;;;6.59;77.09;101309.56;5040944;28;20044;-66
2023/01/02 03:35:49;;;;;;;38.42;20.02;;;;;;;6.40;77.34;101286.19;5040716;28;20041;-67
2023/01/02 03:38:21;;;;;;;31.55;18.65;;;;;;;6.53;77.00;101304.69;5040211;28;20343;-66
2023/01/02 03:40:53;;;;;;;32.75;18.83;;;;;;;6.54;77.06;101306.38;5039306;28;20045;-66
2023/01/02 03:43:30;;;;;;;32.97;18.48;;;;;;;6.32;76.70;101305.09;5040093;28;20338;-66
2023/01/02 03:46:16;;;;;;;31.95;19.58;;;;;;;6.44;78.15;101314.00;5037843;28;20068;-66
2023/01/02 03:48:52;;;;;;;34.00;18.65;;;;;;;6.46;78.44;101322.66;5036729;28;20083;-66
2023/01/02 03:51:17;;;;;;;34.13;19.60;;;;;;;6.20;79.55;101307.63;5039750;28;20044;-66
2023/01/02 03:53:43;;;;;;;40.53;21.75;;;;;;;6.08;79.54;101312.72;5038499;28;20052;-66
2023/01/02 03:56:16;;;;;;;41.58;22.98;;;;;;;6.09;81.24;101314.41;5040228;28;20041;-66
2023/01/02 03:58:54;;;;;;;42.92;22.33;;;;;;;6.25;80.80;101316.94;5039418;28;20056;-65
2023/01/02 04:01:44;;;;;;;36.70;23.30;;;;;;;6.12;82.37;101323.88;5041487;28;20347;-66
2023/01/02 04:04:09;;;;;;;33.80;19.70;;;;;;;6.12;82.25;101323.88;5039583;28;20327;-66
2023/01/02 04:06:39;;;;;;;32.28;18.00;;;;;;;6.13;82.00;101324.72;5038919;28;20056;-68
2023/01/02 04:09:10;;;;;;;37.30;19.35;;;;;;;6.21;82.23;101331.19;5039060;28;20109;-67
2023/01/02 04:11:40;;;;;;;34.75;20.90;;;;;;;6.25;81.12;101327.47;5040090;28;20282;-66
2023/01/02 04:14:39;;;;;;;53.83;22.05;;;;;;;6.09;80.90;101327.56;5039569;28;20029;-68
2023/01/02 04:17:09;;;;;;;35.97;19.52;;;;;;;6.21;81.02;101327.72;5038510;28;20072;-65
2023/01/02 04:19:43;;;;;;;42.90;19.17;;;;;;;6.31;79.12;101329.72;5038108;28;20249;-66
2023/01/02 04:22:15;;;;;;;35.35;19.00;;;;;;;6.39;79.67;101329.25;5037034;28;20037;-66
2023/01/02 04:24:45;;;;;;;31.38;18.38;;;;;;;6.44;79.33;101337.69;5038091;28;20042;-67
2023/01/02 04:27:17;;;;;;;33.72;18.65;;;;;;;6.47;78.49;101331.38;5038656;28;20094;-67
2023/01/02 04:29:42;;;;;;;33.90;19.52;;;;;;;6.45;78.21;101338.53;5039593;28;20188;-66
2023/01/02 04:32:19;;;;;;;34.78;19.55;;;;;;;6.46;78.42;101330.53;5038834;28;20263;-65
2023/01/02 04:34:46;;;;;;;31.65;18.38;;;;;;;6.45;78.66;101328.84;5038531;28;20056;-66
2023/01/02 04:37:32;;;;;;;27.77;18.65;;;;;;;6.31;78.68;101319.19;5038396;28;20113;-66
2023/01/02 04:40:08;;;;;;;30.15;18.67;;;;;;;6.22;79.38;101316.25;5040448;28;20060;-67
2023/01/02 04:42:34;;;;;;;28.83;16.83;;;;;;;6.24;78.86;101322.28;5038497;28;20045;-66
2023/01/02 04:44:59;;;;;;;29.13;17.83;;;;;;;6.18;79.26;101315.63;5038309;28;20040;-68
2023/01/02 04:47:24;;;;;;;31.90;16.98;;;;;;;6.09;79.89;101311.78;5039254;28;20041;-66
2023/01/02 04:49:50;;;;;;;26.65;17.75;;;;;;;6.11;80.69;101316.94;5038564;28;20222;-65
2023/01/02 04:52:15;;;;;;;29.10;17.42;;;;;;;6.10;80.17;101315.25;5037057;28;20337;-67
2023/01/02 04:54:41;;;;;;;30.42;16.73;;;;;;;6.00;80.57;101311.50;5035552;28;20034;-66
2023/01/02 04:57:06;;;;;;;27.38;17.73;;;;;;;6.00;81.14;101316.75;5038720;28;20034;-66
2023/01/02 04:59:31;;;;;;;34.70;19.38;;;;;;;5.98;81.20;101316.84;5035193;28;20041;-66
2023/01/02 05:01:57;;;;;;;33.53;19.88;;;;;;;5.88;81.22;101323.56;5038650;28;20406;-66
2023/01/02 05:04:22;;;;;;;30.63;20.27;;;;;;;5.93;81.20;101318.06;5041225;28;20037;-67
2023/01/02 05:06:48;;;;;;;32.92;20.35;;;;;;;5.86;81.56;101325.44;5037981;28;20044;-65
2023/01/02 05:09:14;;;;;;;29.05;18.90;;;;;;;5.80;81.60;101317.94;5039098;28;20231;-66
2023/01/02 05:11:40;;;;;;;35.28;22.42;;;;;;;5.60;82.65;101306.00;5051310;28;20331;-66
2023/01/02 05:14:06;;;;;;;33.03;22.35;;;;;;;5.54;83.52;101314.25;5051974;28;20051;-65
2023/01/02 05:16:31;;;;;;;30.23;20.45;;;;;;;5.52;83.72;101310.88;5052940;28;20065;-66
2023/01/02 05:18:56;;;;;;;30.80;19.38;;;;;;;5.56;83.55;101314.16;5051139;28;20045;-66
2023/01/02 05:24:06;;;;;;;25.73;15.60;;;;;;;5.56;82.77;101314.16;5051707;28;20075;-66
2023/01/02 05:26:32;;;;;;;23.60;13.98;;;;;;;5.51;82.77;101316.22;5049256;28;20064;-63
2023/01/02 05:28:58;;;;;;;27.20;15.63;;;;;;;5.63;83.00;101316.34;5055446;28;20322;-67
2023/01/02 05:31:23;;;;;;;27.35;16.02;;;;;;;5.46;82.80;101324.38;5054052;28;20052;-68
2023/01/02 05:33:53;;;;;;;32.78;18.48;;;;;;;5.43;83.03;101335.91;5054304;28;20045;-66
2023/01/02 05:36:19;;;;;;;30.67;17.50;;;;;;;5.64;81.62;101323.28;5054789;28;20029;-66
2023/01/02 05:38:44;;;;;;;29.75;18.10;;;;;;;5.85;80.49;101323.75;5053985;28;20222;-66
2023/01/02 05:41:10;;;;;;;51.95;23.27;;;;;;;5.93;79.95;101316.28;5054811;28;20040;-66
2023/01/02 05:43:36;;;;;;;46.15;22.45;;;;;;;5.98;78.94;101332.63;5055795;28;20028;-67
2023/01/02 05:46:10;;;;;;;30.75;18.55;;;;;;;6.07;79.14;101323.31;5056302;28;20041;-66
2023/01/02 05:48:36;;;;;;;30.77;18.15;;;;;;;6.12;78.63;101321.25;5055089;28;20043;-66
2023/01/02 05:51:06;;;;;;;34.22;17.67;;;;;;;6.15;78.29;101313.19;5055845;28;20025;-66
2023/01/02 05:53:32;;;;;;;28.65;16.35;;;;;;;6.12;78.19;101316.00;5055116;28;20063;-65
2023/01/02 05:56:16;;;;;;;31.17;17.33;;;;;;;6.17;77.11;101320.97;5055585;28;20258;-66
2023/01/02 05:58:44;;;;;;;31.92;17.92;;;;;;;6.20;76.21;101323.41;5051645;28;20040;-66
2023/01/02 06:01:24;;;;;;;28.73;17.77;;;;;;;6.12;76.68;101321.25;5056077;28;20041;-66
2023/01/02 06:03:53;;;;;;;29.85;18.80;;;;;;;6.08;77.46;101323.22;5053783;28;20055;-67
2023/01/02 06:06:21;;;;;;;39.30;23.50;;;;;;;6.04;78.03;101321.72;5053383;28;20374;-67
2023/01/02 06:08:46;;;;;;;36.25;25.17;;;;;;;6.07;77.72;101331.22;5055438;28;20048;-66
2023/01/02 06:11:12;;;;;;;36.83;22.70;;;;;;;6.09;77.47;101329.34;5054478;28;20401;-66
2023/01/02 06:13:38;;;;;;;34.72;21.73;;;;;;;6.03;78.37;101327.94;5053215;28;20291;-67
2023/01/02 06:16:06;;;;;;;39.30;23.67;;;;;;;6.01;78.72;101339.47;5054253;28;20094;-66
2023/01/02 06:18:33;;;;;;;36.58;24.67;;;;;;;5.93;79.40;101339.09;5054008;28;20032;-66
2023/01/02 06:20:59;;;;;;;32.35;20.05;;;;;;;5.69;79.69;101344.88;5054104;28;20047;-65
2023/01/02 06:23:25;;;;;;;36.03;23.85;;;;;;;5.49;81.16;101345.22;5055016;28;20314;-66
2023/01/02 06:25:51;;;;;;;34.17;21.60;;;;;;;5.45;81.91;101348.94;5053389;28;20086;-66
2023/01/02 06:28:16;;;;;;;27.90;17.27;;;;;;;5.54;81.43;101353.66;5054971;28;20044;-65
2023/01/02 06:30:42;;;;;;;29.75;17.85;;;;;;;5.57;81.32;101342.97;5052799;28;20035;-66
2023/01/02 06:33:07;;;;;;;27.45;16.77;;;;;;;5.55;81.86;101351.88;5055260;28;20037;-66
2023/01/02 06:35:33;;;;;;;25.30;16.67;;;;;;;5.54;82.04;101348.41;5053138;28;20309;-65
2023/01/02 06:37:58;;;;;;;25.17;15.10;;;;;;;5.63;81.83;101350.50;5053750;28;20033;-66
2023/01/02 06:40:24;;;;;;;26.35;15.35;;;;;;;5.65;82.07;101356.50;5054336;28;20048;-66
2023/01/02 06:42:49;;;;;;;26.17;14.38;;;;;;;5.81;81.93;101359.06;5054613;28;20125;-66
2023/01/02 06:45:15;;;;;;;22.38;13.15;;;;;;;5.82;81.66;101358.13;5054545;28;20076;-66
2023/01/02 06:47:40;;;;;;;25.20;15.43;;;;;;;5.78;82.00;101370.59;5054138;28;20040;-66
2023/01/02 06:50:06;;;;;;;35.95;19.30;;;;;;;5.80;81.92;101356.53;5053191;28;20029;-66
2023/01/02 06:52:31;;;;;;;33.03;18.52;;;;;;;5.90;82.12;101362.94;5053339;28;20044;-66
2023/01/02 06:54:57;;;;;;;33.38;19.17;;;;;;;5.98;81.56;101371.22;5054977;28;20075;-67
2023/01/02 06:57:22;;;;;;;31.80;18.98;;;;;;;6.11;81.82;101372.16;5052093;28;20051;-66
2023/01/02 06:59:47;;;;;;;26.70;16.73;;;;;;;6.21;81.50;101380.34;5054148;28;20039;-65
2023/01/02 07:02:13;;;;;;;29.38;16.73;;;;;;;6.29;81.17;101378.97;5052506;28;20041;-67
2023/01/02 07:04:39;;;;;;;37.17;20.95;;;;;;;6.14;81.53;101382.50;5054913;28;20029;-65
2023/01/02 07:07:05;;;;;;;24.90;14.30;;;;;;;6.16;82.42;101377.13;5055083;28;20440;-66
2023/01/02 07:09:31;;;;;;;29.40;17.15;;;;;;;6.23;83.05;101386.34;5053835;28;20033;-66
2023/01/02 07:11:59;;;;;;;31.20;17.38;;;;;;;6.32;82.95;101384.03;5053437;28;20302;-66
2023/01/02 07:14:25;;;;;;;29.42;18.77;;;;;;;6.40;83.11;101388.81;5055005;28;20033;-65
2023/01/02 07:16:51;;;;;;;31.85;19.23;;;;;;;6.43;82.86;101386.00;5054356;28;20350;-66
2023/01/02 07:19:16;;;;;;;35.67;22.38;;;;;;;6.41;83.52;101385.25;5053761;28;20361;-67
2023/01/02 07:21:42;;;;;;;32.60;20.23;;;;;;;6.46;84.23;101385.81;5053628;28;20044;-65
2023/01/02 07:24:14;;;;;;;32.55;20.40;;;;;;;6.67;84.36;101386.25;5052806;28;20025;-66
2023/01/02 07:26:43;;;;;;;29.88;18.02;;;;;;;6.86;83.82;101380.66;5053539;28;20037;-66
2023/01/02 07:29:08;;;;;;;26.95;17.60;;;;;;;6.98;83.29;101383.34;5052497;28;20290;-66
2023/01/02 07:31:34;;;;;;;28.67;18.27;;;;;;;7.07;84.10;101378.41;5052711;28;20040;-65
2023/01/02 07:34:00;;;;;;;31.88;19.55;;;;;;;7.27;84.13;101375.31;5053761;28;20033;-66
2023/01/02 07:36:25;;;;;;;39.65;22.80;;;;;;;7.44;83.69;101377.72;5052242;28;20412;-67
2023/01/02 07:38:52;;;;;;;35.90;23.02;;;;;;;7.45;83.54;101379.41;5053299;28;20326;-66
2023/01/02 07:41:23;;;;;;;33.72;18.58;;;;;;;7.46;83.92;101382.88;5052449;28;20223;-65
2023/01/02 07:43:49;;;;;;;30.63;19.63;;;;;;;7.58;84.12;101388.19;5053607;28;20323;-67
2023/01/02 07:46:18;;;;;;;26.98;17.65;;;;;;;7.70;83.70;101383.88;5052518;28;21094;-66
2023/01/02 07:48:44;;;;;;;26.92;18.20;;;;;;;7.79;83.62;101385.03;5053706;28;20260;-66
2023/01/02 07:51:10;;;;;;;31.35;19.05;;;;;;;7.96;83.72;101379.47;5053584;28;20218;-66
2023/01/02 07:53:37;;;;;;;25.98;16.38;;;;;;;8.10;83.36;101378.50;5053176;28;20039;-67
2023/01/02 07:56:03;;;;;;;23.85;15.10;;;;;;;8.07;83.27;101365.53;5053795;28;20036;-66
2023/01/02 07:58:29;;;;;;;23.73;15.27;;;;;;;7.98;83.69;101373.13;5051359;28;20052;-67
2023/01/02 08:00:55;;;;;;;24.52;15.40;;;;;;;7.89;85.07;101363.22;5053095;28;20342;-67
2023/01/02 08:03:21;;;;;;;25.70;16.13;;;;;;;8.06;85.44;101375.22;5050945;28;20025;-66
2023/01/02 08:05:47;;;;;;;28.35;16.60;;;;;;;8.29;84.87;101373.63;5053715;28;20339;-66
2023/01/02 08:08:12;;;;;;;28.60;17.63;;;;;;;8.57;84.24;101369.94;5053528;28;20040;-64
2023/01/02 08:10:38;;;;;;;29.83;18.75;;;;;;;8.85;83.28;101377.56;5052596;28;20049;-63
2023/01/02 08:13:04;;;;;;;34.47;21.83;;;;;;;9.05;82.21;101375.28;5053385;28;20234;-65
2023/01/02 08:15:30;;;;;;;37.22;22.63;;;;;;;9.19;81.29;101372.44;5050590;28;20037;-64
2023/01/02 08:17:56;;;;;;;39.47;26.25;;;;;;;9.33;81.47;101368.78;5053295;28;20043;-64
2023/01/02 08:20:22;;;;;;;41.53;25.83;;;;;;;9.48;81.32;101365.88;5051012;28;20029;-64
2023/01/02 08:22:48;;;;;;;35.70;24.40;;;;;;;9.64;80.52;101356.78;5051646;28;20698;-63
2023/01/02 08:25:13;;;;;;;34.22;21.35;;;;;;;9.57;80.38;101354.59;5051077;28;20037;-64
2023/01/02 08:27:39;;;;;;;33.25;21.55;;;;;;;9.61;80.09;101344.63;5055227;28;20048;-63
2023/01/02 08:30:05;;;;;;;41.20;23.65;;;;;;;9.65;80.56;101346.06;5057087;28;20044;-63
2023/01/02 08:32:34;;;;;;;33.00;21.35;;;;;;;9.83;80.46;101346.47;5056691;28;20108;-65
2023/01/02 08:35:00;;;;;;;28.58;18.70;;;;;;;9.84;80.16;101349.00;5055721;28;20036;-64
2023/01/02 08:37:25;;;;;;;36.53;20.85;;;;;;;9.88;80.20;101334.56;5056654;28;20036;-64
2023/01/02 08:39:51;;;;;;;32.30;20.02;;;;;;;9.99;80.40;101331.09;5056616;28;20036;-64
2023/01/02 08:42:16;;;;;;;33.50;20.08;;;;;;;10.10;80.48;101338.19;5056911;28;20130;-64
2023/01/02 08:44:42;;;;;;;30.75;18.38;;;;;;;10.20;80.03;101347.13;5056541;28;20059;-63
2023/01/02 08:47:07;;;;;;;28.70;18.80;;;;;;;10.21;80.35;101332.91;5057085;28;20086;-64
2023/01/02 08:49:33;;;;;;;31.38;17.50;;;;;;;10.26;80.21;101335.22;5055955;28;20338;-65
2023/01/02 08:51:58;;;;;;;30.55;19.70;;;;;;;10.36;80.17;101331.72;5057133;28;20033;-67
2023/01/02 08:54:24;;;;;;;24.58;15.93;;;;;;;10.41;80.07;101326.06;5056862;28;20402;-63
2023/01/02 08:56:49;;;;;;;23.98;16.48;;;;;;;10.29;81.00;101321.72;5056217;28;20036;-64
2023/01/02 08:59:14;;;;;;;29.17;17.58;;;;;;;10.24;82.10;101322.94;5057248;28;20033;-65
2023/01/02 09:01:40;;;;;;;25.00;16.63;;;;;;;9.90;83.50;101326.50;5057408;28;20346;-64
2023/01/02 09:04:07;;;;;;;27.23;17.52;;;;;;;9.85;84.96;101316.28;5060566;28;20104;-64
2023/01/02 09:06:34;;;;;;;27.38;17.15;;;;;;;9.93;84.64;101313.03;5060615;28;20353;-62
2023/01/02 09:09:00;;;;;;;28.35;17.80;;;;;;;9.84;85.63;101308.47;5060538;28;20041;-65
2023/01/02 09:11:32;;;;;;;25.45;17.23;;;;;;;9.87;85.00;101310.88;5060562;28;20103;-64
2023/01/02 09:13:58;;;;;;;26.75;16.55;;;;;;;9.97;84.89;101303.91;5060937;28;20037;-64
2023/01/02 09:16:24;;;;;;;26.10;15.77;;;;;;;9.99;85.74;101301.97;5060583;28;20049;-66
2023/01/02 09:18:51;;;;;;;23.90;15.45;;;;;;;9.94;85.98;101296.19;5060135;28;20048;-65
2023/01/02 09:21:17;;;;;;;22.67;14.23;;;;;;;9.96;85.59;101296.09;5060492;28;20033;-64
2023/01/02 09:23:42;;;;;;;21.67;13.75;;;;;;;9.78;86.30;101285.13;5060162;28;20619;-64
2023/01/02 09:26:09;;;;;;;18.20;13.07;;;;;;;9.82;86.63;101291.88;5060092;28;20082;-64
2023/01/02 09:28:35;;;;;;;21.08;13.50;;;;;;;9.94;86.48;101280.31;5059664;28;20064;-64
2023/01/02 09:31:09;;;;;;;22.77;13.18;;;;;;;9.59;87.37;101275.13;5059979;28;20100;-65
2023/01/02 09:33:35;;;;;;;19.30;12.05;;;;;;;9.80;86.16;101273.47;5059162;28;21144;-64
2023/01/02 09:36:02;;;;;;;20.63;12.05;;;;;;;9.89;86.95;101274.56;5059731;28;20039;-66
2023/01/02 09:38:27;;;;;;;19.80;12.57;;;;;;;10.05;84.10;101269.72;5059751;28;20112;-64
2023/01/02 09:40:54;;;;;;;20.38;11.02;;;;;;;10.07;83.19;101266.97;5059632;28;20043;-64
2023/01/02 09:43:43;;;;;;;18.63;11.30;;;;;;;10.29;83.40;101260.84;5060007;28;20025;-64
2023/01/02 09:46:18;;;;;;;16.50;10.98;;;;;;;10.41;82.24;101263.38;5059532;28;20095;-65
2023/01/02 09:48:43;;;;;;;17.70;10.18;;;;;;;10.60;81.21;101264.53;5058966;28;20044;-67
2023/01/02 09:51:11;;;;;;;14.10;10.02;;;;;;;10.57;81.45;101256.81;5060136;28;20075;-65
2023/01/02 09:53:36;;;;;;;15.15;9.98;;;;;;;10.59;80.92;101244.28;5059542;28;20139;-65
2023/01/02 09:56:14;;;;;;;19.23;10.75;;;;;;;10.59;81.71;101228.41;5059555;28;20044;-65
2023/01/02 09:58:57;;;;;;;18.25;10.85;;;;;;;10.61;82.00;101227.31;5059605;28;20044;-65
2023/01/02 10:01:33;;;;;;;14.70;10.48;;;;;;;10.75;82.42;101229.66;5059220;28;20048;-65
2023/01/02 10:04:21;;;;;;;15.98;10.05;;;;;;;10.82;81.04;101228.19;5056988;28;20033;-66
2023/01/02 10:07:11;;;;;;;15.52;10.50;;;;;;;10.89;79.56;101223.22;5058688;28;20249;-65
2023/01/02 10:09:55;;;;;;;26.77;13.43;;;;;;;10.76;80.83;101227.84;5058606;28;20441;-65
2023/01/02 10:12:34;;;;;;;20.90;11.73;;;;;;;10.90;80.70;101226.69;5059038;28;20097;-66
2023/01/02 10:15:09;;;;;;;21.20;11.52;;;;;;;11.03;80.08;101209.66;5058583;28;20075;-65
2023/01/02 10:17:49;;;;;;;22.10;13.52;;;;;;;11.17;78.94;101204.00;5058935;28;20134;-65
2023/01/02 10:20:29;;;;;;;17.15;10.95;;;;;;;11.26;78.51;101204.19;5059046;28;20276;-65
2023/01/02 10:23:02;;;;;;;16.23;10.40;;;;;;;11.12;79.76;101205.38;5059601;28;20047;-66
2023/01/02 10:25:51;;;;;;;14.50;11.23;;;;;;;11.12;79.82;101206.22;5059458;28;20120;-65
2023/01/02 10:28:41;;;;;;;15.05;9.50;;;;;;;10.95;79.25;101200.66;5059439;28;20397;-65
2023/01/02 10:31:13;;;;;;;16.88;10.30;;;;;;;10.95;79.09;101196.19;5059655;28;20064;-65
2023/01/02 10:34:00;;;;;;;14.90;9.73;;;;;;;11.11;79.23;101193.09;5057861;28;20059;-66
2023/01/02 10:36:37;;;;;;;12.82;9.00;;;;;;;11.20;78.83;101187.84;5058665;28;20075;-66
2023/01/02 10:39:07;;;;;;;14.13;9.75;;;;;;;11.32;79.39;101190.41;5059425;28;20052;-65
2023/01/02 10:41:33;;;;;;;15.95;10.23;;;;;;;11.34;79.00;101189.31;5058620;28;20041;-64
2023/01/02 10:44:04;;;;;;;15.05;8.98;;;;;;;11.43;77.95;101185.88;5058398;28;20085;-65
2023/01/02 10:46:38;;;;;;;16.10;10.05;;;;;;;11.50;77.81;101180.91;5058060;28;20049;-66
2023/01/02 10:49:07;;;;;;;14.80;10.13;;;;;;;11.58;78.32;101180.25;5058533;28;20067;-66
2023/01/02 10:51:34;;;;;;;14.30;10.02;;;;;;;11.59;77.81;101179.25;5058516;28;20064;-65
2023/01/02 10:54:00;;;;;;;13.30;9.95;;;;;;;11.61;78.21;101175.50;5051987;28;20040;-67
2023/01/02 10:56:25;;;;;;;18.40;12.32;;;;;;;11.58;78.06;101169.63;5053334;28;20032;-66
2023/01/02 10:58:52;;;;;;;18.58;12.57;;;;;;;11.35;78.60;101160.97;5052097;28;20036;-64
2023/01/02 11:01:20;;;;;;;16.13;10.25;;;;;;;11.33;79.05;101161.13;5051784;28;20036;-66
2023/01/02 11:03:47;;;;;;;17.30;9.77;;;;;;;11.46;77.72;101160.94;5054404;28;20045;-65
2023/01/02 11:06:20;;;;;;;14.48;8.75;;;;;;;11.44;76.90;101158.41;5055948;28;20037;-66
2023/01/02 11:08:58;;;;;;;14.93;9.80;;;;;;;11.46;77.66;101151.16;5057496;28;20032;-65
2023/01/02 11:11:25;;;;;;;15.85;9.45;;;;;;;11.48;77.95;101145.72;5057842;28;20510;-66
2023/01/02 11:13:54;;;;;;;16.60;10.40;;;;;;;11.44;78.08;101144.28;5058174;28;20047;-65
2023/01/02 11:16:22;;;;;;;14.95;10.38;;;;;;;11.57;78.73;101142.25;5058325;28;20037;-65
2023/01/02 11:18:58;;;;;;;15.55;10.18;;;;;;;11.52;77.46;101137.34;5058009;28;20060;-65
2023/01/02 11:21:51;;;;;;;15.52;9.32;;;;;;;11.49;78.40;101134.13;5058196;28;20024;-65
2023/01/02 11:24:18;;;;;;;14.20;9.65;;;;;;;11.56;79.42;101131.78;5054480;28;20777;-66
2023/01/02 11:26:47;;;;;;;14.77;9.88;;;;;;;11.68;77.55;101126.25;5057460;28;20257;-67
2023/01/02 11:29:28;;;;;;;17.60;9.82;;;;;;;11.74;78.69;101119.53;5057846;28;20047;-65
2023/01/02 11:31:56;;;;;;;12.52;8.32;;;;;;;11.81;77.25;101118.06;5057801;28;20040;-67